Accueil
METAR-TAF:

METAR-TAF

Aéroports :

Fairbanks, Alaska, États-Unis

latitude: 64-48-14N, longitude: 147-52-34W, altitude: 132 m

Observation

Le bulletin a été fait il y a 1 heure et 16 minutes, à 10:53 UTC
Vent 3 kt de nord-est
Température -9°C
Humidité 85%
Pression 1006 hPa
Visibilité: 16.1 km
Nuages épars à une hauteur de 10000 ft
Nuages épars à une hauteur de 20000 ft

METAR: PAFA 121053Z 04003KT 10SM SCT100 SCT200 M09/M11 A2971 RMK AO2 SLP070 T10941111

Heure: 03:09 (12:09 UTC)

Prévision

Le bulletin a été fait il y a 30 minutes, à 11:39 UTC
Prévision valable du 12 à 12 UTC au 13 à 18 UTC
Vent 5 kt de nord-est
Visibilité: 10 km
Nuages fragmentés à une hauteur de 10000 ft
Nuages fragmentés à une hauteur de 20000 ft

TAF: PAFA 121139Z 1212/1318 04005KT P6SM BKN100 BKN200

Observations et prévisions météorologiques de plus de 4000 aéroports (messages METAR et TAF).

Les stations disponibles sont représentées par des disques jaunes et rouges sur la carte.

Passer la souris dessus pour voir le nom de la station.

Cliquer dessus pour voir les observations et prévisions météorologiques.

Pour changer de carte: cliquez sur les boutons verts avec une croix noire pour zoomer, sur le bouton vert avec un tiret pour effectuer un zoom arrière, ou sur les flèches vertes pour les cartes adjacentes.


METAR-TAF: